Share

Colby, WI

WIDOT Abbotsford - STH 29 3 mi E of Abbotsfrd (MABBW3) Elev 1400 ft | 44.95 °N, 90.27 °W | Change Station

Current weather conditions updated 35 minutes ago

Overcast
Overcast
51 °F
Feels Like 51 °F
N
0
Wind Variable Wind from NE
Gusts 0.0 mph
Sunrise 6:06 AM
Sunset 7:54 PM
Moon Waning Gibbous

Today is forecast to be Warmer than yesterday. Thunderstorms.

Pressure 29.93 in
Visibility 1.0 miles
Clouds Mostly Cloudy 2600 ft
Overcast 3700 ft
Dew Point 50 °F
Humidity 97%
Rainfall -999.00 in
Snow Depth Not available.
UV 0 out of 16
Pollen 6.90 out of 12
Air Quality Not available.
Flu Activity Sporadic
METAR KMDZ 210915Z AUTO 00000KT 1SM BR BKN026 OVC037 10/10 A2993 RMK AO2 LTG DSNT W T00980098

More Conditions Fewer Conditions

Pressure 29.93 in
Visibility 1.0 miles
Clouds Mostly Cloudy 2600 ft
Overcast 3700 ft
Dew Point 50 °F
Humidity 97%
Rainfall -999.00 in
Snow Depth Not available.
UV 0 out of 16
Pollen 6.90 out of 12
Air Quality Not available.
Flu Activity Sporadic
METAR KMDZ 210915Z AUTO 00000KT 1SM BR BKN026 OVC037 10/10 A2993 RMK AO2 LTG DSNT W T00980098

More Conditions Fewer Conditions

10-Day Weather Forecast

Almanac

Astronomy

Apr. 21, 2014 Rise Set
Actual Time 6:06 AM CDT 7:54 PM CDT
Civil Twilight 5:35 AM CDT 8:25 PM CDT
Nautical Twilight 4:57 AM CDT 9:03 PM CDT
Astronomical Twilight 4:16 AM CDT 9:45 PM CDT
Moon 1:28 AM CDT 11:30 AM CDT
Length of Visible Light 14h 50m
Length of Day
13h 47m
Tomorrow will be 2m 54s longer.
Waning Gibbous, 61% of the Moon is Illuminated
Today
Waning Gibbous
Apr 22
Last Quarter
Apr 29
New
May 6
First Quarter
May 14
Full

Today's Extremes

State Highs State Lows

Community

  • Snowy Robin
    Snowy Robin
  • Sun Pillar and Geese
    Sun Pillar and Geese
  • Showers on the Way
    Showers on the Way
  • Easter Morning Fog
    Easter Morning Fog
  • Easter Dance
    Easter Dance

WunderPhotos

Upload Photos

1,703,579 photos uploaded!

WunderBlogs® & News

Nearby

Snow Depth

Station Depth Elevation
No new snow has been reported.

Coastal Water Temperatures

Place Temperature
No Stations Reporting

Earthquake Activity

City Distance Mag. Time & Date
No recent earthquake activity has been reported nearby.
Minimum magnitude displayed is 2.5.

Nearby Weather Stations

Station Location Temp. Dew Point Humidity Wind Precip. Elev Updated Type
WIDOT Abbotsford - STH 29 3 mi E of Abbo, Abbotsford, WI 51 °F 50 °F 97% NE  at  0 mph 0.00 in / hr 1400 ft 3:52 AM CDT MADIS
Rib Falls Repair, Athens, WI 50.6 °F 50 °F 97% SSE  at  0.0 mph 0.00 in / hr 1348 ft 4:27 AM CDT Normal
Single Elm tree Farm, Marathon, WI 52.0 °F 51 °F 95% ENE  at  0.0 mph - / hr 1424 ft 4:12 AM CDT Normal

Show More Stations Show Fewer Stations

What do you think?

We're not finished. Please let us know what you like, what you don't like, and what you are still missing.